createdAt,value
2019-05-11T00:01:00.095Z,8.60
2019-05-11T00:03:31.906Z,9.58
2019-05-11T00:06:03.540Z,9.40
2019-05-11T00:08:35.681Z,9.38
2019-05-11T00:11:07.512Z,9.25
2019-05-11T00:13:39.129Z,9.45
2019-05-11T00:16:10.717Z,8.73
2019-05-11T00:18:42.834Z,9.58
2019-05-11T00:21:14.487Z,10.00
2019-05-11T00:23:46.474Z,9.53
2019-05-11T00:26:17.897Z,8.58
2019-05-11T00:28:49.241Z,10.32
2019-05-11T00:31:21.057Z,9.33
2019-05-11T00:33:52.669Z,9.30
2019-05-11T00:36:24.626Z,9.70
2019-05-11T00:38:56.331Z,8.55
2019-05-11T00:41:27.691Z,8.45
2019-05-11T00:43:59.726Z,8.15
2019-05-11T00:46:31.781Z,7.95
2019-05-11T00:49:03.711Z,8.15
2019-05-11T00:51:35.033Z,8.18
2019-05-11T00:54:06.123Z,8.70
2019-05-11T00:56:37.917Z,9.35
2019-05-11T00:59:21.377Z,9.05
2019-05-11T01:01:43.391Z,10.13
2019-05-11T01:04:15.631Z,9.88
2019-05-11T01:06:47.432Z,9.70
2019-05-11T01:09:18.447Z,10.13
2019-05-11T01:11:50.102Z,9.80
2019-05-11T01:14:22.118Z,9.40
2019-05-11T01:16:53.434Z,9.73
2019-05-11T01:19:25.183Z,8.90
2019-05-11T01:21:57.108Z,8.58
2019-05-11T01:24:29.007Z,10.50
2019-05-11T01:27:00.718Z,11.08
2019-05-11T01:29:32.055Z,11.03
2019-05-11T01:32:03.694Z,10.23
2019-05-11T01:34:35.550Z,9.85
2019-05-11T01:37:07.576Z,9.00
2019-05-11T01:39:39.148Z,9.43
2019-05-11T01:42:10.779Z,9.48
2019-05-11T01:44:42.077Z,9.93
2019-05-11T01:47:13.998Z,9.15
2019-05-11T01:49:45.633Z,9.33
2019-05-11T01:52:16.986Z,9.78
2019-05-11T01:54:48.569Z,10.10
2019-05-11T01:57:20.564Z,9.50
2019-05-11T01:59:52.810Z,9.63
2019-05-11T02:02:24.191Z,11.50
2019-05-11T02:05:32.729Z,11.40
2019-05-11T02:08:04.717Z,11.25
2019-05-11T02:10:35.739Z,11.05
2019-05-11T02:13:07.331Z,11.75
2019-05-11T02:15:38.716Z,11.97
2019-05-11T02:18:10.750Z,12.05
2019-05-11T02:20:42.751Z,11.10
2019-05-11T02:23:14.340Z,11.63
2019-05-11T02:25:46.351Z,14.20
2019-05-11T02:28:17.956Z,18.55
2019-05-11T02:30:49.510Z,17.65
2019-05-11T02:33:21.687Z,15.98
2019-05-11T02:35:52.713Z,14.85
2019-05-11T02:38:24.438Z,13.05
2019-05-11T02:40:55.943Z,13.50
2019-05-11T02:43:27.542Z,13.28
2019-05-11T02:45:59.283Z,12.58
2019-05-11T02:48:30.913Z,12.55
2019-05-11T02:51:03.343Z,12.80
2019-05-11T02:53:36.573Z,12.37
2019-05-11T02:56:08.148Z,13.35
2019-05-11T02:58:39.161Z,13.72
2019-05-11T03:01:11.018Z,12.43
2019-05-11T03:03:43.107Z,12.73
2019-05-11T03:06:15.756Z,12.90
2019-05-11T03:08:47.091Z,12.68
2019-05-11T03:11:18.962Z,12.55
2019-05-11T03:13:51.005Z,12.93
2019-05-11T03:16:22.413Z,13.38
2019-05-11T03:18:54.053Z,12.30
2019-05-11T03:21:25.807Z,12.37
2019-05-11T03:23:57.162Z,12.98
2019-05-11T03:26:28.187Z,12.00
2019-05-11T03:28:59.844Z,12.07
2019-05-11T03:31:31.740Z,13.13
2019-05-11T03:34:02.754Z,12.73
2019-05-11T03:36:34.087Z,12.63
2019-05-11T03:39:06.089Z,12.63
2019-05-11T03:41:38.040Z,11.95
2019-05-11T03:44:09.638Z,12.90
2019-05-11T03:46:40.999Z,11.30
2019-05-11T03:49:12.366Z,12.10
2019-05-11T03:51:44.561Z,11.80
2019-05-11T03:54:16.509Z,12.23
2019-05-11T03:56:47.883Z,12.43
2019-05-11T03:59:19.472Z,11.90
2019-05-11T04:01:50.840Z,11.80
2019-05-11T04:04:22.953Z,11.75
2019-05-11T04:06:54.849Z,11.37
2019-05-11T04:09:26.368Z,10.40
2019-05-11T04:11:57.978Z,11.33
2019-05-11T04:14:29.541Z,9.83
2019-05-11T04:17:01.729Z,10.60
2019-05-11T04:19:33.632Z,11.33
2019-05-11T04:22:05.187Z,10.83
2019-05-11T04:24:37.068Z,11.33
2019-05-11T04:27:09.379Z,10.27
2019-05-11T04:29:40.685Z,11.50
2019-05-11T04:32:12.224Z,11.20
2019-05-11T04:34:44.407Z,10.37
2019-05-11T04:37:15.762Z,10.50
2019-05-11T04:39:47.614Z,10.87
2019-05-11T04:42:19.256Z,11.20
2019-05-11T04:44:52.508Z,11.60
2019-05-11T04:47:24.184Z,10.53
2019-05-11T04:49:56.113Z,11.07
2019-05-11T04:52:28.014Z,11.43
2019-05-11T04:54:59.695Z,12.07
2019-05-11T04:57:31.251Z,12.87
2019-05-11T05:00:02.265Z,11.90
2019-05-11T05:02:34.982Z,12.33
2019-05-11T05:05:06.738Z,12.10
2019-05-11T05:07:47.982Z,12.97
2019-05-11T05:10:13.989Z,11.80
2019-05-11T05:12:50.794Z,11.20
2019-05-11T05:15:18.599Z,11.23
2019-05-11T05:17:49.604Z,9.53
2019-05-11T05:20:21.086Z,10.27
2019-05-11T05:22:52.983Z,9.17
2019-05-11T05:25:24.565Z,10.57
2019-05-11T05:27:56.508Z,10.30
2019-05-11T05:30:28.578Z,10.30
2019-05-11T05:33:00.146Z,11.13
2019-05-11T05:35:31.796Z,11.87
2019-05-11T05:38:03.455Z,10.43
2019-05-11T05:40:35.698Z,10.87
2019-05-11T05:43:08.065Z,11.33
2019-05-11T05:45:39.748Z,10.60
2019-05-11T05:48:11.653Z,10.13
2019-05-11T05:50:43.034Z,11.17
2019-05-11T05:53:14.579Z,10.57
2019-05-11T05:55:46.137Z,12.00
2019-05-11T05:58:17.942Z,12.33
2019-05-11T06:00:50.072Z,12.00
2019-05-11T06:03:21.936Z,11.00
2019-05-11T06:05:53.766Z,11.37
2019-05-11T06:08:25.467Z,10.23
2019-05-11T06:10:57.114Z,13.20
2019-05-11T06:13:43.935Z,10.30
2019-05-11T06:16:02.656Z,10.80
2019-05-11T06:18:34.005Z,10.93
2019-05-11T06:21:06.078Z,10.47
2019-05-11T06:23:37.954Z,11.20
2019-05-11T06:26:09.443Z,12.03
2019-05-11T06:28:41.378Z,12.17
2019-05-11T06:31:12.813Z,13.47
2019-05-11T06:33:44.174Z,15.40
2019-05-11T06:36:16.702Z,14.93
2019-05-11T06:38:48.044Z,15.47
2019-05-11T06:41:19.721Z,15.07
2019-05-11T06:44:01.401Z,14.17
2019-05-11T06:46:25.481Z,14.23
2019-05-11T06:48:56.822Z,13.50
2019-05-11T06:51:28.409Z,14.23
2019-05-11T06:53:59.444Z,14.07
2019-05-11T06:56:31.340Z,13.70
2019-05-11T06:59:02.349Z,14.53
2019-05-11T07:01:34.203Z,16.63
2019-05-11T07:04:06.375Z,15.93
2019-05-11T07:06:37.994Z,13.27
2019-05-11T07:09:09.384Z,13.37
2019-05-11T07:11:41.339Z,15.20
2019-05-11T07:14:20.390Z,14.13
2019-05-11T07:16:48.336Z,14.33
2019-05-11T07:19:20.417Z,16.10
2019-05-11T07:21:51.428Z,15.10
2019-05-11T07:24:23.124Z,14.83
2019-05-11T07:26:54.435Z,13.93
2019-05-11T07:29:26.348Z,13.80
2019-05-11T07:32:05.586Z,14.60
2019-05-11T07:34:30.789Z,14.60
2019-05-11T07:37:03.135Z,14.67
2019-05-11T07:39:34.854Z,15.33
2019-05-11T07:42:07.790Z,15.77
2019-05-11T07:44:41.719Z,16.93
2019-05-11T07:47:12.088Z,16.50
2019-05-11T07:49:43.244Z,17.33
2019-05-11T07:52:18.146Z,16.73
2019-05-11T07:54:52.810Z,17.00
2019-05-11T07:57:22.597Z,18.30
2019-05-11T07:59:54.862Z,18.73
2019-05-11T08:02:28.525Z,19.10
2019-05-11T08:04:59.215Z,18.63
2019-05-11T08:07:30.745Z,19.70
2019-05-11T08:10:03.027Z,19.80
2019-05-11T08:12:34.038Z,22.50
2019-05-11T08:15:11.757Z,28.43
2019-05-11T08:17:39.034Z,27.60
2019-05-11T08:20:11.365Z,32.73
2019-05-11T08:22:43.925Z,31.40
2019-05-11T08:25:18.061Z,31.43
2019-05-11T08:27:48.727Z,32.67
2019-05-11T08:30:20.568Z,28.50
2019-05-11T08:32:52.216Z,32.00
2019-05-11T08:35:23.641Z,27.37
2019-05-11T08:37:55.432Z,26.67
2019-05-11T08:40:28.834Z,26.13
2019-05-11T08:43:00.667Z,23.37
2019-05-11T08:45:33.773Z,24.10
2019-05-11T08:48:05.119Z,27.30
2019-05-11T08:50:38.306Z,28.63
2019-05-11T08:53:09.975Z,25.33
2019-05-11T08:55:41.617Z,27.13
2019-05-11T08:58:13.224Z,24.63
2019-05-11T09:00:44.351Z,23.53
2019-05-11T09:03:17.890Z,22.97
2019-05-11T09:05:49.426Z,22.80
2019-05-11T09:08:21.317Z,22.87
2019-05-11T09:10:54.162Z,22.60
2019-05-11T09:13:27.931Z,23.77
2019-05-11T09:15:59.797Z,21.87
2019-05-11T09:18:31.133Z,23.53
2019-05-11T09:21:02.427Z,21.17
2019-05-11T09:23:38.239Z,19.33
2019-05-11T09:26:08.813Z,19.70
2019-05-11T09:28:41.035Z,17.43
2019-05-11T09:31:12.661Z,20.13
2019-05-11T09:33:44.933Z,20.00
2019-05-11T09:36:18.083Z,18.60
2019-05-11T09:38:49.830Z,19.93
2019-05-11T09:41:20.855Z,20.97
2019-05-11T09:43:53.578Z,21.47
2019-05-11T09:46:27.744Z,21.33
2019-05-11T09:48:58.968Z,20.20
2019-05-11T09:51:31.286Z,19.83
2019-05-11T09:54:03.108Z,19.47
2019-05-11T09:56:35.395Z,19.13
2019-05-11T09:59:08.814Z,20.37
2019-05-11T10:01:39.997Z,20.60
2019-05-11T10:04:11.612Z,20.40
2019-05-11T10:06:43.279Z,22.13
2019-05-11T10:09:15.393Z,23.00
2019-05-11T10:11:47.980Z,21.20
2019-05-11T10:14:19.505Z,21.50
2019-05-11T10:16:51.180Z,20.60
2019-05-11T10:19:22.465Z,20.17
2019-05-11T10:21:53.727Z,30.60
2019-05-11T10:24:24.722Z,24.87
2019-05-11T10:26:57.798Z,20.93
2019-05-11T10:29:29.983Z,34.70
2019-05-11T10:32:01.300Z,25.50
2019-05-11T10:34:33.236Z,20.63
2019-05-11T10:37:04.592Z,20.57
2019-05-11T10:39:38.318Z,17.67
2019-05-11T10:42:10.159Z,19.93
2019-05-11T10:44:41.167Z,20.63
2019-05-11T10:47:13.144Z,22.20
2019-05-11T10:49:44.674Z,22.13
2019-05-11T10:52:18.000Z,19.20
2019-05-11T10:54:50.833Z,20.77
2019-05-11T10:57:22.538Z,20.90
2019-05-11T10:59:53.981Z,20.93
2019-05-11T11:02:27.325Z,19.37
2019-05-11T11:04:58.984Z,20.37
2019-05-11T11:07:30.946Z,20.07
2019-05-11T11:10:02.938Z,24.00
2019-05-11T11:12:34.299Z,25.33
2019-05-11T11:15:07.917Z,21.30
2019-05-11T11:17:39.539Z,19.67
2019-05-11T11:20:11.743Z,21.93
2019-05-11T11:22:44.423Z,19.67
2019-05-11T11:25:17.980Z,18.97
2019-05-11T11:27:49.840Z,19.10
2019-05-11T11:30:22.236Z,18.53
2019-05-11T11:32:53.570Z,19.83
2019-05-11T11:35:25.372Z,17.50
2019-05-11T11:37:58.633Z,18.43
2019-05-11T11:40:30.363Z,18.33
2019-05-11T11:43:01.649Z,16.13
2019-05-11T11:45:33.608Z,15.37
2019-05-11T11:48:05.057Z,13.07
2019-05-11T11:50:37.762Z,12.67
2019-05-11T11:53:09.188Z,14.23
2019-05-11T11:55:41.276Z,14.57
2019-05-11T11:58:13.181Z,16.27
2019-05-11T12:00:44.946Z,16.83
2019-05-11T12:03:18.553Z,18.97
2019-05-11T12:05:50.103Z,15.57
2019-05-11T12:08:21.203Z,14.23
2019-05-11T12:10:53.375Z,14.37
2019-05-11T12:13:27.412Z,12.73
2019-05-11T12:15:58.875Z,11.33
2019-05-11T12:18:30.676Z,13.97
2019-05-11T12:21:02.279Z,13.30
2019-05-11T12:23:33.951Z,11.50
2019-05-11T12:26:05.358Z,12.27
2019-05-11T12:28:38.209Z,12.20
2019-05-11T12:31:10.624Z,13.20
2019-05-11T12:33:42.236Z,11.20
2019-05-11T12:36:13.743Z,12.47
2019-05-11T12:38:45.640Z,10.50
2019-05-11T12:41:18.970Z,10.93
2019-05-11T12:43:50.572Z,10.57
2019-05-11T12:46:22.459Z,10.00
2019-05-11T12:48:56.610Z,11.53
2019-05-11T12:51:27.937Z,11.43
2019-05-11T12:53:59.340Z,11.47
2019-05-11T12:56:30.757Z,12.13
2019-05-11T12:59:02.239Z,11.50
2019-05-11T13:01:33.951Z,11.23
2019-05-11T13:04:05.886Z,10.73
2019-05-11T13:06:38.516Z,12.57
2019-05-11T13:09:09.963Z,11.10
2019-05-11T13:11:40.985Z,11.23
2019-05-11T13:14:12.306Z,10.60
2019-05-11T13:16:44.402Z,12.13
2019-05-11T13:19:17.598Z,11.47
2019-05-11T13:21:49.589Z,11.80
2019-05-11T13:24:21.293Z,11.10
2019-05-11T13:26:53.172Z,12.53
2019-05-11T13:29:24.851Z,13.47
2019-05-11T13:31:58.873Z,11.47
2019-05-11T13:34:31.496Z,12.83
2019-05-11T13:37:04.045Z,13.00
2019-05-11T13:39:37.838Z,12.80
2019-05-11T13:42:08.687Z,13.33
2019-05-11T13:44:40.050Z,15.00
2019-05-11T13:47:11.570Z,13.00
2019-05-11T13:49:43.547Z,12.90
2019-05-11T13:52:14.967Z,14.53
2019-05-11T13:54:48.273Z,12.43
2019-05-11T13:57:20.112Z,11.90
2019-05-11T13:59:52.118Z,11.63
2019-05-11T14:02:23.780Z,12.77
2019-05-11T14:04:55.152Z,12.03
2019-05-11T14:07:27.653Z,11.63
2019-05-11T14:09:59.630Z,12.17
2019-05-11T14:12:30.939Z,12.03
2019-05-11T14:15:02.536Z,11.83
2019-05-11T14:17:34.074Z,11.60
2019-05-11T14:20:08.919Z,12.17
2019-05-11T14:22:40.940Z,12.30
2019-05-11T14:25:12.666Z,11.53
2019-05-11T14:27:44.828Z,11.17
2019-05-11T14:30:18.417Z,11.47
2019-05-11T14:32:49.944Z,10.80
2019-05-11T14:35:22.049Z,9.57
2019-05-11T14:37:53.680Z,10.50
2019-05-11T14:40:25.632Z,10.50
2019-05-11T14:42:58.192Z,9.90
2019-05-11T14:45:29.973Z,10.30
2019-05-11T14:48:01.627Z,9.87
2019-05-11T14:50:33.062Z,10.70
2019-05-11T14:53:04.447Z,9.83
2019-05-11T14:55:38.114Z,11.20
2019-05-11T14:58:09.582Z,10.40
2019-05-11T15:00:41.451Z,10.77
2019-05-11T15:03:13.250Z,10.80
2019-05-11T15:05:44.827Z,10.03
2019-05-11T15:08:18.021Z,10.37
2019-05-11T15:10:49.725Z,10.17
2019-05-11T15:13:21.304Z,11.00
2019-05-11T15:15:53.005Z,12.43
2019-05-11T15:18:37.967Z,11.50
2019-05-11T15:20:58.139Z,11.07
2019-05-11T15:23:30.276Z,11.03
2019-05-11T15:26:01.630Z,10.90
2019-05-11T15:28:33.551Z,9.90
2019-05-11T15:31:08.112Z,11.03
2019-05-11T15:33:39.204Z,10.43
2019-05-11T15:36:10.725Z,10.57
2019-05-11T15:38:42.301Z,10.50
2019-05-11T15:41:13.951Z,10.27
2019-05-11T15:43:47.759Z,10.33
2019-05-11T15:46:19.905Z,9.43
2019-05-11T15:48:58.911Z,10.00
2019-05-11T15:51:25.114Z,9.50
2019-05-11T15:53:58.699Z,8.37
2019-05-11T15:56:30.042Z,8.70
2019-05-11T15:59:01.696Z,8.53
2019-05-11T16:01:33.004Z,8.87
2019-05-11T16:04:04.406Z,9.50
2019-05-11T16:06:36.074Z,9.67
2019-05-11T16:09:08.650Z,9.33
2019-05-11T16:11:40.539Z,8.80
2019-05-11T16:14:12.289Z,8.00
2019-05-11T16:16:44.177Z,9.43
2019-05-11T16:19:15.689Z,9.40
2019-05-11T16:21:46.954Z,8.57
2019-05-11T16:24:18.223Z,9.27
2019-05-11T16:26:50.382Z,9.33
2019-05-11T16:29:22.464Z,10.10
2019-05-11T16:31:54.317Z,9.27
2019-05-11T16:34:27.786Z,10.27
2019-05-11T16:36:59.705Z,8.87
2019-05-11T16:39:31.338Z,8.20
2019-05-11T16:42:02.677Z,8.07
2019-05-11T16:44:33.997Z,10.33
2019-05-11T16:47:07.716Z,10.73
2019-05-11T16:49:38.665Z,10.47
2019-05-11T16:52:10.959Z,10.67
2019-05-11T16:54:42.508Z,10.63
2019-05-11T16:57:13.937Z,13.23
2019-05-11T16:59:45.197Z,11.50
2019-05-11T17:02:18.740Z,10.90
2019-05-11T17:04:50.389Z,12.13
2019-05-11T17:07:21.764Z,10.37
2019-05-11T17:09:53.337Z,11.37
2019-05-11T17:12:24.662Z,12.73
2019-05-11T17:14:59.134Z,15.10
2019-05-11T17:17:31.095Z,15.67
2019-05-11T17:20:02.676Z,12.10
2019-05-11T17:22:35.103Z,11.77
2019-05-11T17:25:08.603Z,11.83
2019-05-11T17:27:40.363Z,9.87
2019-05-11T17:30:12.995Z,10.63
2019-05-11T17:32:44.987Z,10.10
2019-05-11T17:35:17.745Z,8.80
2019-05-11T17:37:49.850Z,9.50
2019-05-11T17:40:23.536Z,8.27
2019-05-11T17:42:58.358Z,9.70
2019-05-11T17:45:30.155Z,9.30
2019-05-11T17:48:02.115Z,10.70
2019-05-11T17:50:33.749Z,12.00
2019-05-11T17:53:05.473Z,9.87
2019-05-11T17:55:38.364Z,10.83
2019-05-11T17:58:09.545Z,11.60
2019-05-11T18:00:41.243Z,11.80
2019-05-11T18:03:13.255Z,12.23
2019-05-11T18:05:44.698Z,11.50
2019-05-11T18:08:18.620Z,10.20
2019-05-11T18:10:50.385Z,9.63
2019-05-11T18:13:22.312Z,9.80
2019-05-11T18:15:53.895Z,9.90
2019-05-11T18:18:25.518Z,10.25
2019-05-11T18:20:57.889Z,12.03
2019-05-11T18:23:29.413Z,11.03
2019-05-11T18:26:00.700Z,9.93
2019-05-11T18:28:31.753Z,11.07
2019-05-11T18:31:03.077Z,10.80
2019-05-11T18:33:34.989Z,9.43
2019-05-11T18:36:08.046Z,9.17
2019-05-11T18:38:39.763Z,9.35
2019-05-11T18:41:11.542Z,8.57
2019-05-11T18:43:42.578Z,9.65
2019-05-11T18:46:14.430Z,9.50
2019-05-11T18:48:45.999Z,9.20
2019-05-11T18:51:17.639Z,9.70
2019-05-11T18:53:49.791Z,9.90
2019-05-11T18:56:21.135Z,9.93
2019-05-11T18:58:52.921Z,11.00
2019-05-11T19:01:24.579Z,11.20
2019-05-11T19:03:56.667Z,9.43
2019-05-11T19:06:28.628Z,9.73
2019-05-11T19:09:00.393Z,9.80
2019-05-11T19:11:33.692Z,9.37
2019-05-11T19:14:05.292Z,9.63
2019-05-11T19:16:39.022Z,9.43
2019-05-11T19:19:10.807Z,9.43
2019-05-11T19:21:42.077Z,10.80
2019-05-11T19:24:13.400Z,11.37
2019-05-11T19:26:45.010Z,10.33
2019-05-11T19:29:17.943Z,9.77
2019-05-11T19:31:49.965Z,10.30
2019-05-11T19:34:21.671Z,10.23
2019-05-11T19:36:53.913Z,9.33
2019-05-11T19:39:25.508Z,9.60
2019-05-11T19:41:58.591Z,8.60
2019-05-11T19:44:30.507Z,9.63
2019-05-11T19:47:01.840Z,9.80
2019-05-11T19:49:33.492Z,10.13
2019-05-11T19:52:05.216Z,8.77
2019-05-11T19:54:38.229Z,8.58
2019-05-11T19:57:10.247Z,9.20
2019-05-11T19:59:42.156Z,8.73
2019-05-11T20:02:14.001Z,8.43
2019-05-11T20:04:48.012Z,10.60
2019-05-11T20:07:18.874Z,12.23
2019-05-11T20:09:50.524Z,11.43
2019-05-11T20:12:22.439Z,9.70
2019-05-11T20:14:54.283Z,9.40
2019-05-11T20:17:28.675Z,10.37
2019-05-11T20:20:01.180Z,10.50
2019-05-11T20:22:33.870Z,10.30
2019-05-11T20:25:05.931Z,12.20
2019-05-11T20:27:38.813Z,10.97
2019-05-11T20:30:10.276Z,10.50
2019-05-11T20:32:41.823Z,8.90
2019-05-11T20:35:13.857Z,9.37
2019-05-11T20:37:46.514Z,10.07
2019-05-11T20:40:18.495Z,8.47
2019-05-11T20:42:50.319Z,9.30
2019-05-11T20:45:21.973Z,9.67
2019-05-11T20:47:54.088Z,8.80
2019-05-11T20:50:25.695Z,9.60
2019-05-11T20:52:58.172Z,8.30
2019-05-11T20:55:29.926Z,8.63
2019-05-11T20:58:01.549Z,8.70
2019-05-11T21:00:33.668Z,8.70
2019-05-11T21:03:07.854Z,9.17
2019-05-11T21:05:38.188Z,10.30
2019-05-11T21:08:10.257Z,10.27
2019-05-11T21:10:41.939Z,8.50
2019-05-11T21:13:13.480Z,9.27
2019-05-11T21:15:45.231Z,8.93
2019-05-11T21:18:18.412Z,8.77
2019-05-11T21:20:49.796Z,9.10
2019-05-11T21:23:21.371Z,8.87
2019-05-11T21:25:52.664Z,8.33
2019-05-11T21:28:24.000Z,8.83
2019-05-11T21:30:55.331Z,7.90
2019-05-11T21:33:28.353Z,8.63
2019-05-11T21:36:00.716Z,9.70
2019-05-11T21:38:33.468Z,10.07
2019-05-11T21:41:05.255Z,8.73
2019-05-11T21:43:37.729Z,10.93
2019-05-11T21:46:10.014Z,8.53
2019-05-11T21:48:41.777Z,9.03
2019-05-11T21:51:13.912Z,8.80
2019-05-11T21:53:48.276Z,8.53
2019-05-11T21:56:19.251Z,8.43
2019-05-11T21:58:53.638Z,7.87
2019-05-11T22:01:24.624Z,8.00
2019-05-11T22:03:56.032Z,7.60
2019-05-11T22:06:30.210Z,7.80
2019-05-11T22:09:00.432Z,8.10
2019-05-11T22:11:33.544Z,7.53
2019-05-11T22:14:04.623Z,7.93
2019-05-11T22:16:38.166Z,8.67
2019-05-11T22:19:09.543Z,9.20
2019-05-11T22:21:40.644Z,8.53
2019-05-11T22:24:12.761Z,7.97
2019-05-11T22:26:44.612Z,8.43
2019-05-11T22:29:18.051Z,8.87
2019-05-11T22:31:49.183Z,8.80
2019-05-11T22:34:21.057Z,9.05
2019-05-11T22:36:52.071Z,8.70
2019-05-11T22:39:23.997Z,8.67
2019-05-11T22:41:55.302Z,9.15
2019-05-11T22:44:27.926Z,9.37
2019-05-11T22:47:00.266Z,9.37
2019-05-11T22:49:32.053Z,9.17
2019-05-11T22:52:03.886Z,9.10
2019-05-11T22:54:38.183Z,10.03
2019-05-11T22:57:09.319Z,9.40
2019-05-11T22:59:40.798Z,9.30
2019-05-11T23:02:11.851Z,9.63
2019-05-11T23:04:43.118Z,9.83
2019-05-11T23:07:15.692Z,9.73
2019-05-11T23:09:47.397Z,10.05
2019-05-11T23:12:19.266Z,10.80
2019-05-11T23:15:09.131Z,10.53
2019-05-11T23:17:40.652Z,10.38
2019-05-11T23:20:12.476Z,10.48
2019-05-11T23:22:57.909Z,10.75
2019-05-11T23:25:23.717Z,9.73
2019-05-11T23:27:55.293Z,10.38
2019-05-11T23:30:28.082Z,9.47
2019-05-11T23:32:59.801Z,8.43
2019-05-11T23:35:32.520Z,8.63
2019-05-11T23:38:03.879Z,8.90
2019-05-11T23:40:37.669Z,7.50
2019-05-11T23:43:09.029Z,7.90
2019-05-11T23:45:41.044Z,7.87
2019-05-11T23:48:12.394Z,8.58
2019-05-11T23:50:43.977Z,8.35
2019-05-11T23:53:17.861Z,8.60
2019-05-11T23:55:49.811Z,7.47
2019-05-11T23:58:21.394Z,8.13
